Pagina principale
METAR-TAF:

METAR-TAF

Aeroporti :

Sussex Airport

Sussex, New Jersey, Stati Uniti

latitudine: 41-12-01N, longitudine: 074-37-23W, altezza: 128 m

Osservazione

Il bollettino è stato emesso 38 minuti fa, alle 21:53 UTC
Vento 5 kt da sud-ovest
Temperature 23°C
Umidità 41%
Pressione 1011 hPa
Visibilità: 16.1 km
Poco nuvoloso ad un'altezza di 7000 ft
Nubi sparse ad un'altezza di 9500 ft
Nuvoloso ad un'altezza di 11000 ft

METAR: KFWN 232153Z AUTO 23005KT 10SM FEW070 SCT095 BKN110 23/09 A2984 RMK AO2 SLP102 T02330094

Ora: 18:31 (22:31 UTC)


TAF: mancante

Osservazioni e previsioni meteorologiche di più di 4000 aeroporti (messaggi METAR e TAF).

Le stazioni disponibili sono rappresentate dai dischi gialli e rossi sulla carta.

Puntare il mouse per vedere il nome della stazione.

Clicca sopra per visualizzare le osservazioni e previsioni meteorologiche.

Per cambiare la mappa : fare clic sui pulsanti verdi con una croce nera per ingrandire, il pulsante verde con un trattino per diminuire, o sulla freccia verde per le mappe adiacenti.


METAR-TAF: